sensor_id;sensor_type;location;lat;lon;timestamp;pressure;altitude;pressure_sealevel;temperature;humidity
60715;BME280;46564;53.096;8.246;2022-10-17T00:01:32;101682.00;;;11.09;93.40
60715;BME280;46564;53.096;8.246;2022-10-17T00:06:34;101695.97;;;11.10;93.34
60715;BME280;46564;53.096;8.246;2022-10-17T00:11:35;101694.13;;;11.07;93.29
60715;BME280;46564;53.096;8.246;2022-10-17T00:16:37;101694.13;;;11.07;93.42
60715;BME280;46564;53.096;8.246;2022-10-17T00:21:39;101698.53;;;11.08;93.32
60715;BME280;46564;53.096;8.246;2022-10-17T00:26:41;101711.75;;;11.11;93.48
60715;BME280;46564;53.096;8.246;2022-10-17T00:31:42;101713.63;;;11.16;93.48
60715;BME280;46564;53.096;8.246;2022-10-17T00:36:44;101704.84;;;11.15;93.43
60715;BME280;46564;53.096;8.246;2022-10-17T00:41:46;101703.22;;;11.19;93.38
60715;BME280;46564;53.096;8.246;2022-10-17T00:46:48;101699.91;;;11.26;93.37
60715;BME280;46564;53.096;8.246;2022-10-17T00:51:53;101697.63;;;11.37;93.46
60715;BME280;46564;53.096;8.246;2022-10-17T00:56:56;101696.13;;;11.46;93.59
60715;BME280;46564;53.096;8.246;2022-10-17T01:02:15;101697.06;;;11.48;93.25
60715;BME280;46564;53.096;8.246;2022-10-17T01:07:17;101693.50;;;11.46;93.36
60715;BME280;46564;53.096;8.246;2022-10-17T01:12:22;101691.66;;;11.44;93.23
60715;BME280;46564;53.096;8.246;2022-10-17T01:33:37;101683.50;;;11.63;93.30
60715;BME280;46564;53.096;8.246;2022-10-17T01:38:47;101678.38;;;11.68;93.26
60715;BME280;46564;53.096;8.246;2022-10-17T01:43:58;101656.59;;;11.72;93.28
60715;BME280;46564;53.096;8.246;2022-10-17T01:49:05;101651.50;;;11.78;93.21
60715;BME280;46564;53.096;8.246;2022-10-17T01:54:19;101646.25;;;11.78;93.03
60715;BME280;46564;53.096;8.246;2022-10-17T01:59:25;101636.13;;;11.92;92.92
60715;BME280;46564;53.096;8.246;2022-10-17T02:04:29;101621.38;;;11.96;92.73
60715;BME280;46564;53.096;8.246;2022-10-17T02:09:31;101621.44;;;11.99;92.51
60715;BME280;46564;53.096;8.246;2022-10-17T02:14:37;101613.59;;;12.00;92.40
60715;BME280;46564;53.096;8.246;2022-10-17T02:19:57;101607.69;;;12.09;92.24
60715;BME280;46564;53.096;8.246;2022-10-17T02:26:05;101596.19;;;12.02;91.85
60715;BME280;46564;53.096;8.246;2022-10-17T02:30:52;101596.69;;;11.89;91.80
60715;BME280;46564;53.096;8.246;2022-10-17T02:35:58;101573.81;;;11.83;91.79
60715;BME280;46564;53.096;8.246;2022-10-17T02:41:04;101574.31;;;11.68;91.87
60715;BME280;46564;53.096;8.246;2022-10-17T02:46:07;101571.50;;;11.61;91.85
60715;BME280;46564;53.096;8.246;2022-10-17T02:51:29;101570.50;;;11.57;92.15
60715;BME280;46564;53.096;8.246;2022-10-17T02:56:40;101583.50;;;11.53;92.23
60715;BME280;46564;53.096;8.246;2022-10-17T03:01:43;101587.97;;;11.55;92.40
60715;BME280;46564;53.096;8.246;2022-10-17T03:06:46;101569.47;;;11.50;92.54
60715;BME280;46564;53.096;8.246;2022-10-17T03:11:48;101564.09;;;11.44;92.47
60715;BME280;46564;53.096;8.246;2022-10-17T03:16:52;101560.34;;;11.36;92.78
60715;BME280;46564;53.096;8.246;2022-10-17T03:21:54;101562.19;;;11.39;92.93
60715;BME280;46564;53.096;8.246;2022-10-17T03:26:56;101556.91;;;11.37;93.08
60715;BME280;46564;53.096;8.246;2022-10-17T03:31:58;101568.16;;;11.33;93.00
60715;BME280;46564;53.096;8.246;2022-10-17T03:37:00;101568.94;;;11.29;93.03
60715;BME280;46564;53.096;8.246;2022-10-17T03:42:04;101560.91;;;11.24;93.34
60715;BME280;46564;53.096;8.246;2022-10-17T03:47:06;101566.00;;;11.18;93.53
60715;BME280;46564;53.096;8.246;2022-10-17T03:52:14;101571.13;;;11.13;93.59
60715;BME280;46564;53.096;8.246;2022-10-17T03:57:17;101570.13;;;11.08;93.65
60715;BME280;46564;53.096;8.246;2022-10-17T04:02:20;101566.38;;;11.00;93.58
60715;BME280;46564;53.096;8.246;2022-10-17T04:07:23;101567.91;;;10.92;93.90
60715;BME280;46564;53.096;8.246;2022-10-17T04:12:25;101563.38;;;10.86;94.09
60715;BME280;46564;53.096;8.246;2022-10-17T04:17:29;101561.69;;;10.88;94.27
60715;BME280;46564;53.096;8.246;2022-10-17T04:22:38;101559.31;;;10.96;94.56
60715;BME280;46564;53.096;8.246;2022-10-17T04:27:40;101555.22;;;11.07;94.59
60715;BME280;46564;53.096;8.246;2022-10-17T04:32:42;101556.38;;;11.17;94.85
60715;BME280;46564;53.096;8.246;2022-10-17T04:37:52;101560.13;;;11.27;95.16
60715;BME280;46564;53.096;8.246;2022-10-17T04:42:54;101560.28;;;11.33;95.36
60715;BME280;46564;53.096;8.246;2022-10-17T04:48:04;101559.72;;;11.45;95.55
60715;BME280;46564;53.096;8.246;2022-10-17T04:53:06;101552.06;;;11.54;95.88
60715;BME280;46564;53.096;8.246;2022-10-17T04:58:07;101548.63;;;11.55;96.01
60715;BME280;46564;53.096;8.246;2022-10-17T05:03:11;101552.19;;;11.59;96.28
60715;BME280;46564;53.096;8.246;2022-10-17T05:08:13;101542.66;;;11.61;96.35
60715;BME280;46564;53.096;8.246;2022-10-17T05:13:15;101533.88;;;11.60;96.58
60715;BME280;46564;53.096;8.246;2022-10-17T05:18:16;101536.38;;;11.56;96.59
60715;BME280;46564;53.096;8.246;2022-10-17T05:23:18;101523.47;;;11.63;96.77
60715;BME280;46564;53.096;8.246;2022-10-17T05:28:21;101528.94;;;11.73;96.82
60715;BME280;46564;53.096;8.246;2022-10-17T05:33:24;101523.91;;;11.82;97.12
60715;BME280;46564;53.096;8.246;2022-10-17T05:38:26;101516.06;;;11.83;97.33
60715;BME280;46564;53.096;8.246;2022-10-17T05:43:28;101507.28;;;11.81;97.16
60715;BME280;46564;53.096;8.246;2022-10-17T05:48:30;101513.38;;;11.80;97.32
60715;BME280;46564;53.096;8.246;2022-10-17T05:53:35;101510.16;;;11.92;97.42
60715;BME280;46564;53.096;8.246;2022-10-17T05:58:41;101508.59;;;11.99;97.63
60715;BME280;46564;53.096;8.246;2022-10-17T06:04:14;101514.66;;;11.98;97.62
60715;BME280;46564;53.096;8.246;2022-10-17T06:09:16;101521.66;;;11.97;97.65
60715;BME280;46564;53.096;8.246;2022-10-17T06:14:21;101532.53;;;12.14;97.81
60715;BME280;46564;53.096;8.246;2022-10-17T06:19:27;101537.25;;;12.29;97.92
60715;BME280;46564;53.096;8.246;2022-10-17T06:24:28;101544.59;;;12.46;97.98
60715;BME280;46564;53.096;8.246;2022-10-17T06:29:30;101526.59;;;12.63;98.16
60715;BME280;46564;53.096;8.246;2022-10-17T06:34:32;101549.63;;;12.76;98.12
60715;BME280;46564;53.096;8.246;2022-10-17T06:39:34;101557.94;;;12.98;98.16
60715;BME280;46564;53.096;8.246;2022-10-17T06:44:44;101548.59;;;13.12;97.94
60715;BME280;46564;53.096;8.246;2022-10-17T06:50:07;101561.06;;;13.24;97.67
60715;BME280;46564;53.096;8.246;2022-10-17T06:55:21;101573.50;;;13.33;97.57
60715;BME280;46564;53.096;8.246;2022-10-17T07:00:44;101598.28;;;13.44;97.14
60715;BME280;46564;53.096;8.246;2022-10-17T07:05:53;101593.13;;;13.50;97.18
60715;BME280;46564;53.096;8.246;2022-10-17T07:10:56;101597.06;;;13.74;96.73
60715;BME280;46564;53.096;8.246;2022-10-17T07:16:00;101590.50;;;14.01;96.66
60715;BME280;46564;53.096;8.246;2022-10-17T07:21:05;101600.94;;;13.97;96.00
60715;BME280;46564;53.096;8.246;2022-10-17T07:26:13;101609.72;;;13.96;95.72
60715;BME280;46564;53.096;8.246;2022-10-17T07:31:17;101593.34;;;14.16;95.48
60715;BME280;46564;53.096;8.246;2022-10-17T07:36:20;101583.41;;;14.58;95.24
60715;BME280;46564;53.096;8.246;2022-10-17T07:41:22;101572.50;;;15.88;94.38
60715;BME280;46564;53.096;8.246;2022-10-17T07:46:24;101574.69;;;16.54;92.03
60715;BME280;46564;53.096;8.246;2022-10-17T07:51:26;101580.53;;;16.00;90.29
60715;BME280;46564;53.096;8.246;2022-10-17T07:56:28;101591.53;;;15.54;90.31
60715;BME280;46564;53.096;8.246;2022-10-17T08:01:30;101593.13;;;16.46;90.40
60715;BME280;46564;53.096;8.246;2022-10-17T08:06:31;101596.09;;;17.09;88.97
60715;BME280;46564;53.096;8.246;2022-10-17T08:11:33;101601.13;;;16.60;87.63
60715;BME280;46564;53.096;8.246;2022-10-17T08:16:36;101585.94;;;16.22;88.09
60715;BME280;46564;53.096;8.246;2022-10-17T08:21:38;101585.94;;;16.19;88.52
60715;BME280;46564;53.096;8.246;2022-10-17T08:26:41;101593.13;;;16.41;88.71
60715;BME280;46564;53.096;8.246;2022-10-17T08:31:46;101583.69;;;17.01;88.45
60715;BME280;46564;53.096;8.246;2022-10-17T08:36:50;101591.72;;;17.30;87.53
60715;BME280;46564;53.096;8.246;2022-10-17T08:47:32;101589.09;;;17.59;85.94
60715;BME280;46564;53.096;8.246;2022-10-17T08:57:48;101584.72;;;17.75;85.39
60715;BME280;46564;53.096;8.246;2022-10-17T09:03:14;101578.56;;;17.96;84.86
60715;BME280;46564;53.096;8.246;2022-10-17T09:14:03;101609.44;;;18.14;84.33
60715;BME280;46564;53.096;8.246;2022-10-17T09:19:14;101611.16;;;18.46;83.75
60715;BME280;46564;53.096;8.246;2022-10-17T09:24:22;101614.69;;;18.51;82.88
60715;BME280;46564;53.096;8.246;2022-10-17T09:29:28;101616.44;;;18.62;82.94
60715;BME280;46564;53.096;8.246;2022-10-17T09:34:38;101613.75;;;18.68;82.73
60715;BME280;46564;53.096;8.246;2022-10-17T09:39:41;101626.13;;;18.77;82.54
60715;BME280;46564;53.096;8.246;2022-10-17T09:45:11;101624.31;;;18.91;82.29
60715;BME280;46564;53.096;8.246;2022-10-17T09:50:24;101635.81;;;18.82;82.07
60715;BME280;46564;53.096;8.246;2022-10-17T09:55:44;101644.72;;;18.72;82.27
60715;BME280;46564;53.096;8.246;2022-10-17T10:00:50;101641.22;;;18.54;82.51
60715;BME280;46564;53.096;8.246;2022-10-17T10:06:14;101646.53;;;18.45;82.79
60715;BME280;46564;53.096;8.246;2022-10-17T10:11:43;101665.09;;;18.50;83.05
60715;BME280;46564;53.096;8.246;2022-10-17T10:16:47;101679.22;;;18.55;83.26
60715;BME280;46564;53.096;8.246;2022-10-17T10:21:55;101704.84;;;18.65;83.23
60715;BME280;46564;53.096;8.246;2022-10-17T10:27:02;101709.25;;;18.72;83.23
60715;BME280;46564;53.096;8.246;2022-10-17T10:32:34;101709.22;;;18.82;83.34
60715;BME280;46564;53.096;8.246;2022-10-17T10:37:37;101718.06;;;18.81;83.20
60715;BME280;46564;53.096;8.246;2022-10-17T10:42:40;101710.13;;;18.73;83.35
60715;BME280;46564;53.096;8.246;2022-10-17T10:47:53;101715.41;;;18.79;83.61
60715;BME280;46564;53.096;8.246;2022-10-17T10:53:14;101720.75;;;18.90;83.30
60715;BME280;46564;53.096;8.246;2022-10-17T11:03:39;101776.44;;;18.76;82.94
60715;BME280;46564;53.096;8.246;2022-10-17T11:08:55;101726.94;;;18.61;83.06
60715;BME280;46564;53.096;8.246;2022-10-17T11:14:07;101754.38;;;18.59;82.99
60715;BME280;46564;53.096;8.246;2022-10-17T11:19:34;101755.25;;;18.61;83.29
60715;BME280;46564;53.096;8.246;2022-10-17T11:25:04;101786.16;;;18.49;84.03
60715;BME280;46564;53.096;8.246;2022-10-17T11:30:11;101787.94;;;18.18;84.99
60715;BME280;46564;53.096;8.246;2022-10-17T11:40:26;101821.41;;;17.87;86.18
60715;BME280;46564;53.096;8.246;2022-10-17T11:45:34;101851.28;;;17.61;87.08
60715;BME280;46564;53.096;8.246;2022-10-17T12:09:15;101736.22;;;16.88;91.89
60715;BME280;46564;53.096;8.246;2022-10-17T12:14:45;101743.34;;;17.01;92.95
60715;BME280;46564;53.096;8.246;2022-10-17T12:19:47;101730.06;;;16.92;93.41
60715;BME280;46564;53.096;8.246;2022-10-17T12:25:28;101763.56;;;16.91;93.61
60715;BME280;46564;53.096;8.246;2022-10-17T12:30:32;101752.00;;;16.77;94.30
60715;BME280;46564;53.096;8.246;2022-10-17T12:35:36;101770.50;;;16.77;94.65
60715;BME280;46564;53.096;8.246;2022-10-17T12:45:56;101817.06;;;16.59;95.56
60715;BME280;46564;53.096;8.246;2022-10-17T12:56:39;101813.38;;;16.43;96.06
60715;BME280;46564;53.096;8.246;2022-10-17T13:01:45;101817.75;;;16.35;96.37
60715;BME280;46564;53.096;8.246;2022-10-17T13:06:52;101844.16;;;16.35;96.75
60715;BME280;46564;53.096;8.246;2022-10-17T13:11:58;101839.72;;;16.31;96.87
60715;BME280;46564;53.096;8.246;2022-10-17T13:29:43;101857.25;;;16.23;97.71
60715;BME280;46564;53.096;8.246;2022-10-17T13:35:14;101857.25;;;16.23;97.72
60715;BME280;46564;53.096;8.246;2022-10-17T13:40:47;101856.38;;;16.24;97.54
60715;BME280;46564;53.096;8.246;2022-10-17T13:46:45;101874.91;;;16.27;97.77
60715;BME280;46564;53.096;8.246;2022-10-17T13:52:04;101882.75;;;16.21;97.66
60715;BME280;46564;53.096;8.246;2022-10-17T14:02:28;101891.59;;;16.20;97.80
60715;BME280;46564;53.096;8.246;2022-10-17T14:07:37;101899.41;;;16.14;97.63
60715;BME280;46564;53.096;8.246;2022-10-17T14:13:00;101909.94;;;16.11;97.67
60715;BME280;46564;53.096;8.246;2022-10-17T14:18:07;101913.50;;;16.13;97.92
60715;BME280;46564;53.096;8.246;2022-10-17T14:23:28;101916.94;;;16.05;97.66
60715;BME280;46564;53.096;8.246;2022-10-17T14:28:31;101910.69;;;15.99;97.97
60715;BME280;46564;53.096;8.246;2022-10-17T14:33:33;101918.59;;;15.97;97.88
60715;BME280;46564;53.096;8.246;2022-10-17T14:38:45;101923.00;;;15.98;98.33
60715;BME280;46564;53.096;8.246;2022-10-17T14:43:56;101926.44;;;15.93;98.35
60715;BME280;46564;53.096;8.246;2022-10-17T14:49:06;101931.69;;;15.89;98.33
60715;BME280;46564;53.096;8.246;2022-10-17T14:54:23;101937.03;;;15.94;98.45
60715;BME280;46564;53.096;8.246;2022-10-17T14:59:26;101934.44;;;15.97;98.61
60715;BME280;46564;53.096;8.246;2022-10-17T15:04:47;101945.06;;;16.00;98.80
60715;BME280;46564;53.096;8.246;2022-10-17T15:09:50;101940.72;;;16.05;99.03
60715;BME280;46564;53.096;8.246;2022-10-17T15:14:53;101939.84;;;16.05;99.03
60715;BME280;46564;53.096;8.246;2022-10-17T15:19:56;101933.69;;;16.09;99.18
60715;BME280;46564;53.096;8.246;2022-10-17T15:24:57;101950.38;;;16.03;99.04
60715;BME280;46564;53.096;8.246;2022-10-17T15:30:00;101947.78;;;16.06;99.21
60715;BME280;46564;53.096;8.246;2022-10-17T15:35:02;101952.09;;;16.01;99.44
60715;BME280;46564;53.096;8.246;2022-10-17T15:40:05;101951.25;;;16.02;99.46
60715;BME280;46564;53.096;8.246;2022-10-17T15:45:09;101962.69;;;16.03;99.40
60715;BME280;46564;53.096;8.246;2022-10-17T15:50:15;101963.59;;;16.03;99.27
60715;BME280;46564;53.096;8.246;2022-10-17T15:55:18;101964.44;;;16.01;99.26
60715;BME280;46564;53.096;8.246;2022-10-17T16:00:23;101978.53;;;16.01;99.48
60715;BME280;46564;53.096;8.246;2022-10-17T16:05:25;101978.47;;;15.98;99.63
60715;BME280;46564;53.096;8.246;2022-10-17T16:10:27;101986.34;;;15.94;99.29
60715;BME280;46564;53.096;8.246;2022-10-17T16:15:28;101999.53;;;15.92;99.20
60715;BME280;46564;53.096;8.246;2022-10-17T16:20:30;101997.78;;;15.94;99.52
60715;BME280;46564;53.096;8.246;2022-10-17T16:25:32;102010.13;;;15.95;99.42
60715;BME280;46564;53.096;8.246;2022-10-17T16:30:39;102031.97;;;15.83;99.50
60715;BME280;46564;53.096;8.246;2022-10-17T16:35:43;102047.47;;;15.62;99.54
60715;BME280;46564;53.096;8.246;2022-10-17T16:40:46;102048.13;;;15.50;99.28
60715;BME280;46564;53.096;8.246;2022-10-17T16:45:47;102043.47;;;15.35;99.34
60715;BME280;46564;53.096;8.246;2022-10-17T16:50:50;102049.44;;;15.23;99.04
60715;BME280;46564;53.096;8.246;2022-10-17T16:56:02;102056.22;;;15.09;99.00
60715;BME280;46564;53.096;8.246;2022-10-17T17:01:08;102041.97;;;14.99;98.86
60715;BME280;46564;53.096;8.246;2022-10-17T17:06:15;102039.31;;;14.99;99.08
60715;BME280;46564;53.096;8.246;2022-10-17T17:11:18;102044.44;;;14.91;99.08
60715;BME280;46564;53.096;8.246;2022-10-17T17:16:22;102066.28;;;14.84;98.92
60715;BME280;46564;53.096;8.246;2022-10-17T17:21:24;102077.66;;;14.81;99.12
60715;BME280;46564;53.096;8.246;2022-10-17T17:26:29;102089.09;;;14.82;99.01
60715;BME280;46564;53.096;8.246;2022-10-17T17:31:33;102089.97;;;14.82;98.95
60715;BME280;46564;53.096;8.246;2022-10-17T17:36:36;102087.22;;;14.76;99.04
60715;BME280;46564;53.096;8.246;2022-10-17T17:41:39;102093.38;;;14.77;99.15
60715;BME280;46564;53.096;8.246;2022-10-17T17:46:41;102121.47;;;14.75;99.21
60715;BME280;46564;53.096;8.246;2022-10-17T17:51:47;102119.59;;;14.69;99.40
60715;BME280;46564;53.096;8.246;2022-10-17T17:56:51;102123.84;;;14.62;99.24
60715;BME280;46564;53.096;8.246;2022-10-17T18:01:52;102120.91;;;14.52;99.08
60715;BME280;46564;53.096;8.246;2022-10-17T18:06:54;102125.97;;;14.41;99.17
60715;BME280;46564;53.096;8.246;2022-10-17T18:12:10;102123.09;;;14.30;99.50
60715;BME280;46564;53.096;8.246;2022-10-17T18:17:11;102123.84;;;14.26;99.42
60715;BME280;46564;53.096;8.246;2022-10-17T18:22:13;102128.09;;;14.19;99.27
60715;BME280;46564;53.096;8.246;2022-10-17T18:27:15;102118.38;;;14.17;99.44
60715;BME280;46564;53.096;8.246;2022-10-17T18:32:17;102114.69;;;14.08;99.59
60715;BME280;46564;53.096;8.246;2022-10-17T18:37:18;102123.41;;;14.06;99.68
60715;BME280;46564;53.096;8.246;2022-10-17T18:42:20;102126.75;;;14.00;99.43
60715;BME280;46564;53.096;8.246;2022-10-17T18:47:22;102134.53;;;13.94;99.46
60715;BME280;46564;53.096;8.246;2022-10-17T18:52:27;102135.38;;;13.93;99.41
60715;BME280;46564;53.096;8.246;2022-10-17T18:57:28;102144.00;;;13.86;99.70
60715;BME280;46564;53.096;8.246;2022-10-17T19:02:30;102146.59;;;13.84;99.83
60715;BME280;46564;53.096;8.246;2022-10-17T19:07:38;102160.50;;;13.80;99.91
60715;BME280;46564;53.096;8.246;2022-10-17T19:12:39;102163.91;;;13.76;100.00
60715;BME280;46564;53.096;8.246;2022-10-17T19:17:41;102173.53;;;13.74;99.86
60715;BME280;46564;53.096;8.246;2022-10-17T19:22:43;102171.69;;;13.71;100.00
60715;BME280;46564;53.096;8.246;2022-10-17T19:27:45;102183.09;;;13.72;100.00
60715;BME280;46564;53.096;8.246;2022-10-17T19:32:54;102192.72;;;13.70;99.99
60715;BME280;46564;53.096;8.246;2022-10-17T19:37:55;102195.34;;;13.70;100.00
60715;BME280;46564;53.096;8.246;2022-10-17T19:42:57;102198.78;;;13.67;100.00
60715;BME280;46564;53.096;8.246;2022-10-17T19:47:59;102201.38;;;13.66;100.00
60715;BME280;46564;53.096;8.246;2022-10-17T19:53:00;102210.00;;;13.61;100.00
60715;BME280;46564;53.096;8.246;2022-10-17T19:58:02;102217.91;;;13.61;100.00
60715;BME280;46564;53.096;8.246;2022-10-17T20:03:03;102226.69;;;13.60;100.00
60715;BME280;46564;53.096;8.246;2022-10-17T20:08:07;102225.81;;;13.61;100.00
60715;BME280;46564;53.096;8.246;2022-10-17T20:13:12;102231.03;;;13.60;100.00
60715;BME280;46564;53.096;8.246;2022-10-17T20:18:13;102237.13;;;13.57;100.00
60715;BME280;46564;53.096;8.246;2022-10-17T20:23:15;102251.06;;;13.55;100.00
60715;BME280;46564;53.096;8.246;2022-10-17T20:28:17;102270.38;;;13.55;100.00
60715;BME280;46564;53.096;8.246;2022-10-17T20:33:19;102270.47;;;13.58;100.00
60715;BME280;46564;53.096;8.246;2022-10-17T20:38:20;102269.63;;;13.59;100.00
60715;BME280;46564;53.096;8.246;2022-10-17T20:43:22;102280.06;;;13.56;100.00
60715;BME280;46564;53.096;8.246;2022-10-17T20:48:27;102273.88;;;13.54;100.00
60715;BME280;46564;53.096;8.246;2022-10-17T20:53:33;102281.81;;;13.56;100.00
60715;BME280;46564;53.096;8.246;2022-10-17T20:58:37;102278.28;;;13.55;100.00
60715;BME280;46564;53.096;8.246;2022-10-17T21:03:39;102286.00;;;13.49;100.00
60715;BME280;46564;53.096;8.246;2022-10-17T21:08:47;102281.50;;;13.45;100.00
60715;BME280;46564;53.096;8.246;2022-10-17T21:14:15;102299.84;;;13.43;100.00
60715;BME280;46564;53.096;8.246;2022-10-17T21:19:17;102299.72;;;13.39;100.00
60715;BME280;46564;53.096;8.246;2022-10-17T21:24:19;102301.44;;;13.37;100.00
60715;BME280;46564;53.096;8.246;2022-10-17T21:29:22;102298.72;;;13.34;100.00
60715;BME280;46564;53.096;8.246;2022-10-17T21:34:23;102310.84;;;13.30;100.00
60715;BME280;46564;53.096;8.246;2022-10-17T21:39:25;102322.16;;;13.27;100.00
60715;BME280;46564;53.096;8.246;2022-10-17T21:44:31;102313.31;;;13.25;100.00
60715;BME280;46564;53.096;8.246;2022-10-17T21:49:33;102313.41;;;13.27;100.00
60715;BME280;46564;53.096;8.246;2022-10-17T21:54:34;102302.78;;;13.25;100.00
60715;BME280;46564;53.096;8.246;2022-10-17T21:59:36;102296.69;;;13.26;100.00
60715;BME280;46564;53.096;8.246;2022-10-17T22:04:38;102294.06;;;13.26;100.00
60715;BME280;46564;53.096;8.246;2022-10-17T22:09:39;102303.00;;;13.32;100.00
60715;BME280;46564;53.096;8.246;2022-10-17T22:14:43;102302.16;;;13.33;100.00
60715;BME280;46564;53.096;8.246;2022-10-17T22:19:46;102308.28;;;13.32;100.00
60715;BME280;46564;53.096;8.246;2022-10-17T22:24:47;102314.31;;;13.29;100.00
60715;BME280;46564;53.096;8.246;2022-10-17T22:29:49;102304.78;;;13.33;100.00
60715;BME280;46564;53.096;8.246;2022-10-17T22:35:03;102324.19;;;13.35;100.00
60715;BME280;46564;53.096;8.246;2022-10-17T22:40:05;102320.56;;;13.33;100.00
60715;BME280;46564;53.096;8.246;2022-10-17T22:45:08;102323.19;;;13.33;100.00
60715;BME280;46564;53.096;8.246;2022-10-17T22:50:09;102326.81;;;13.35;100.00
60715;BME280;46564;53.096;8.246;2022-10-17T22:55:18;102317.25;;;13.38;100.00
60715;BME280;46564;53.096;8.246;2022-10-17T23:00:20;102316.22;;;13.33;100.00
60715;BME280;46564;53.096;8.246;2022-10-17T23:05:22;102311.06;;;13.36;100.00
60715;BME280;46564;53.096;8.246;2022-10-17T23:10:23;102311.06;;;13.36;100.00
60715;BME280;46564;53.096;8.246;2022-10-17T23:15:25;102311.94;;;13.37;100.00
60715;BME280;46564;53.096;8.246;2022-10-17T23:20:28;102317.94;;;13.33;100.00
60715;BME280;46564;53.096;8.246;2022-10-17T23:25:29;102326.66;;;13.30;100.00
60715;BME280;46564;53.096;8.246;2022-10-17T23:30:33;102326.69;;;13.32;100.00
60715;BME280;46564;53.096;8.246;2022-10-17T23:35:35;102331.94;;;13.32;100.00
60715;BME280;46564;53.096;8.246;2022-10-17T23:40:36;102332.75;;;13.29;100.00
60715;BME280;46564;53.096;8.246;2022-10-17T23:45:41;102326.47;;;13.25;100.00
60715;BME280;46564;53.096;8.246;2022-10-17T23:50:50;102335.13;;;13.21;100.00
60715;BME280;46564;53.096;8.246;2022-10-17T23:55:51;102342.06;;;13.19;100.00
